createdAt,value
2022-11-14T00:02:09.249Z,3.77
2022-11-14T00:04:39.549Z,3.90
2022-11-14T00:07:10.471Z,3.90
2022-11-14T00:09:42.895Z,3.63
2022-11-14T00:12:14.115Z,3.40
2022-11-14T00:14:43.791Z,4.20
2022-11-14T00:17:14.402Z,3.83
2022-11-14T00:19:43.847Z,3.50
2022-11-14T00:22:13.955Z,3.83
2022-11-14T00:24:43.018Z,3.60
2022-11-14T00:27:12.625Z,3.50
2022-11-14T00:29:42.724Z,3.40
2022-11-14T00:32:12.774Z,3.63
2022-11-14T00:34:42.398Z,3.60
2022-11-14T00:37:11.420Z,3.53
2022-11-14T00:39:40.836Z,3.87
2022-11-14T00:42:10.789Z,3.80
2022-11-14T00:44:40.778Z,3.70
2022-11-14T00:47:09.596Z,3.03
2022-11-14T00:49:39.885Z,3.60
2022-11-14T00:52:09.481Z,3.87
2022-11-14T00:54:38.980Z,3.70
2022-11-14T00:57:08.059Z,3.67
2022-11-14T00:59:37.377Z,3.37
2022-11-14T01:02:06.955Z,3.40
2022-11-14T01:04:37.441Z,3.93
2022-11-14T01:07:07.641Z,3.60
2022-11-14T01:09:37.764Z,3.53
2022-11-14T01:12:07.649Z,3.00
2022-11-14T01:14:36.496Z,3.13
2022-11-14T01:17:05.411Z,3.57
2022-11-14T01:19:36.152Z,3.60
2022-11-14T01:22:08.312Z,4.17
2022-11-14T01:24:36.952Z,3.83
2022-11-14T01:27:06.845Z,3.47
2022-11-14T01:29:35.727Z,3.50
2022-11-14T01:32:04.681Z,3.07
2022-11-14T01:34:33.694Z,3.27
2022-11-14T01:37:03.203Z,3.40
2022-11-14T01:39:33.729Z,4.17
2022-11-14T01:42:02.740Z,3.07
2022-11-14T01:44:48.776Z,3.47
2022-11-14T01:47:25.468Z,3.17
2022-11-14T01:50:00.917Z,3.50
2022-11-14T01:52:36.225Z,3.33
2022-11-14T01:55:11.025Z,3.43
2022-11-14T01:57:45.815Z,3.50
2022-11-14T02:00:17.924Z,3.70
2022-11-14T02:02:48.708Z,2.90
2022-11-14T02:05:20.981Z,3.63
2022-11-14T02:07:51.668Z,2.83
2022-11-14T02:10:22.602Z,5.13
2022-11-14T02:12:53.562Z,3.73
2022-11-14T02:15:23.076Z,3.13
2022-11-14T02:17:52.134Z,2.70
2022-11-14T02:20:28.866Z,3.80
2022-11-14T02:22:58.220Z,4.23
2022-11-14T02:25:27.471Z,3.73
2022-11-14T02:27:58.977Z,3.60
2022-11-14T02:30:27.638Z,3.00
2022-11-14T02:33:10.588Z,4.03
2022-11-14T02:35:41.645Z,2.90
2022-11-14T02:38:10.737Z,3.17
2022-11-14T02:40:40.748Z,3.20
2022-11-14T02:43:10.380Z,3.10
2022-11-14T02:45:40.373Z,3.00
2022-11-14T02:48:08.913Z,3.47
2022-11-14T02:50:37.919Z,3.10
2022-11-14T02:53:08.532Z,3.70
2022-11-14T02:55:37.442Z,3.70
2022-11-14T02:58:07.542Z,3.30
2022-11-14T03:00:53.340Z,3.70
2022-11-14T03:03:27.528Z,3.17
2022-11-14T03:06:01.623Z,4.07
2022-11-14T03:08:32.299Z,3.37
2022-11-14T03:11:07.969Z,3.33
2022-11-14T03:13:38.241Z,3.27
2022-11-14T03:16:09.556Z,3.43
2022-11-14T03:18:38.986Z,4.03
2022-11-14T03:21:11.820Z,3.30
2022-11-14T03:23:43.045Z,3.07
2022-11-14T03:26:14.496Z,3.70
2022-11-14T03:28:44.638Z,3.13
2022-11-14T03:31:15.745Z,2.93
2022-11-14T03:33:46.355Z,3.87
2022-11-14T03:36:15.868Z,2.97
2022-11-14T03:38:48.041Z,3.80
2022-11-14T03:41:17.477Z,3.80
2022-11-14T03:43:48.041Z,3.00
2022-11-14T03:46:17.654Z,4.07
2022-11-14T03:48:46.650Z,3.57
2022-11-14T03:51:16.225Z,3.57
2022-11-14T03:53:46.582Z,4.10
2022-11-14T03:56:16.107Z,3.00
2022-11-14T03:58:46.140Z,4.00
2022-11-14T04:01:15.804Z,3.30
2022-11-14T04:03:45.032Z,3.70
2022-11-14T04:06:16.335Z,3.40
2022-11-14T04:08:47.708Z,3.60
2022-11-14T04:11:17.794Z,3.70
2022-11-14T04:13:47.794Z,4.30
2022-11-14T04:16:17.277Z,4.43
2022-11-14T04:18:46.157Z,3.90
2022-11-14T04:21:15.908Z,3.97
2022-11-14T04:23:46.307Z,4.10
2022-11-14T04:26:16.751Z,3.90
2022-11-14T04:28:46.777Z,3.63
2022-11-14T04:31:16.588Z,4.13
2022-11-14T04:33:45.607Z,3.90
2022-11-14T04:36:15.743Z,4.13
2022-11-14T04:38:46.973Z,3.80
2022-11-14T04:41:17.008Z,3.87
2022-11-14T04:43:50.624Z,4.17
2022-11-14T04:46:20.319Z,3.40
2022-11-14T04:48:50.357Z,3.83
2022-11-14T04:51:20.531Z,4.00
2022-11-14T04:53:52.141Z,4.03
2022-11-14T04:56:23.357Z,4.50
2022-11-14T04:58:53.712Z,4.00
2022-11-14T05:01:23.846Z,4.40
2022-11-14T05:03:53.262Z,4.30
2022-11-14T05:06:22.662Z,4.53
2022-11-14T05:08:54.226Z,5.00
2022-11-14T05:11:28.091Z,3.97
2022-11-14T05:13:58.387Z,5.63
2022-11-14T05:16:29.165Z,4.30
2022-11-14T05:18:57.996Z,4.70
2022-11-14T05:21:27.395Z,5.03
2022-11-14T05:23:58.270Z,5.10
2022-11-14T05:26:27.769Z,5.87
2022-11-14T05:28:57.809Z,5.47
2022-11-14T05:31:27.435Z,5.50
2022-11-14T05:33:57.595Z,5.30
2022-11-14T05:36:26.761Z,6.50
2022-11-14T05:38:58.035Z,5.17
2022-11-14T05:41:26.616Z,6.27
2022-11-14T05:43:56.330Z,6.50
2022-11-14T05:46:26.335Z,5.50
2022-11-14T05:48:59.743Z,5.70
2022-11-14T05:51:29.966Z,6.50
2022-11-14T05:54:01.050Z,5.47
2022-11-14T05:56:30.416Z,7.40
2022-11-14T05:59:00.721Z,7.10
2022-11-14T06:01:30.316Z,5.90
2022-11-14T06:04:00.359Z,5.90
2022-11-14T06:06:29.815Z,6.37
2022-11-14T06:09:01.077Z,7.23
2022-11-14T06:11:30.493Z,5.70
2022-11-14T06:14:00.592Z,5.17
2022-11-14T06:16:29.888Z,10.37
2022-11-14T06:18:58.878Z,6.33
2022-11-14T06:21:28.964Z,6.33
2022-11-14T06:23:59.776Z,6.43
2022-11-14T06:26:31.887Z,5.97
2022-11-14T06:29:02.780Z,6.20
2022-11-14T06:31:32.619Z,7.10
2022-11-14T06:34:02.136Z,6.60
2022-11-14T06:36:32.770Z,6.17
2022-11-14T06:39:03.503Z,7.63
2022-11-14T06:41:32.485Z,7.10
2022-11-14T06:44:02.378Z,7.50
2022-11-14T06:46:31.956Z,7.67
2022-11-14T06:49:01.580Z,7.50
2022-11-14T06:51:30.582Z,7.43
2022-11-14T06:54:02.076Z,7.10
2022-11-14T06:56:32.069Z,7.80
2022-11-14T06:59:00.525Z,6.93
2022-11-14T07:01:29.500Z,7.70
2022-11-14T07:04:00.756Z,7.63
2022-11-14T07:06:31.591Z,6.87
2022-11-14T07:09:03.305Z,7.20
2022-11-14T07:11:33.574Z,7.17
2022-11-14T07:14:05.947Z,6.97
2022-11-14T07:16:37.126Z,8.43
2022-11-14T07:19:10.965Z,7.97
2022-11-14T07:21:40.215Z,7.30
2022-11-14T07:24:12.296Z,7.53
2022-11-14T07:26:41.663Z,5.40
2022-11-14T07:29:10.848Z,5.80
2022-11-14T07:31:42.033Z,7.60
2022-11-14T07:34:12.449Z,6.77
2022-11-14T07:36:41.729Z,6.93
2022-11-14T07:39:11.903Z,6.90
2022-11-14T07:41:41.881Z,7.07
2022-11-14T07:44:12.155Z,7.07
2022-11-14T07:46:42.156Z,7.20
2022-11-14T07:49:11.552Z,7.30
2022-11-14T07:51:41.153Z,7.40
2022-11-14T07:54:16.240Z,5.83
2022-11-14T07:56:46.479Z,6.97
2022-11-14T07:59:16.122Z,7.20
2022-11-14T08:01:45.599Z,6.90
2022-11-14T08:04:15.954Z,6.60
2022-11-14T08:06:46.262Z,6.67
2022-11-14T08:09:17.604Z,6.90
2022-11-14T08:11:50.319Z,6.13
2022-11-14T08:14:20.046Z,5.87
2022-11-14T08:16:51.168Z,6.90
2022-11-14T08:19:21.876Z,6.90
2022-11-14T08:21:51.485Z,7.10
2022-11-14T08:24:22.504Z,6.17
2022-11-14T08:26:51.920Z,7.40
2022-11-14T08:29:21.991Z,6.90
2022-11-14T08:31:55.674Z,6.27
2022-11-14T08:34:30.513Z,6.93
2022-11-14T08:36:59.895Z,7.10
2022-11-14T08:39:33.405Z,7.37
2022-11-14T08:42:02.930Z,6.87
2022-11-14T08:44:31.633Z,5.70
2022-11-14T08:47:00.994Z,7.33
2022-11-14T08:49:30.812Z,6.60
2022-11-14T08:52:01.429Z,6.60
2022-11-14T08:54:33.254Z,7.30
2022-11-14T08:57:05.070Z,9.50
2022-11-14T08:59:35.491Z,8.87
2022-11-14T09:02:04.672Z,7.60
2022-11-14T09:04:35.778Z,10.40
2022-11-14T09:07:06.223Z,10.00
2022-11-14T09:09:38.334Z,8.97
2022-11-14T09:12:09.568Z,9.40
2022-11-14T09:14:39.568Z,9.17
2022-11-14T09:17:08.711Z,8.63
2022-11-14T09:19:38.929Z,9.60
2022-11-14T09:22:07.909Z,9.77
2022-11-14T09:24:40.298Z,9.80
2022-11-14T09:27:11.208Z,9.10
2022-11-14T09:29:41.088Z,9.20
2022-11-14T09:32:10.844Z,9.70
2022-11-14T09:34:43.157Z,9.10
2022-11-14T09:37:13.567Z,8.00
2022-11-14T09:39:46.979Z,8.70
2022-11-14T09:42:42.748Z,9.67
2022-11-14T09:45:17.310Z,8.63
2022-11-14T09:47:50.227Z,8.63
2022-11-14T09:50:28.336Z,8.90
2022-11-14T09:53:03.698Z,9.93
2022-11-14T09:55:37.617Z,9.80
2022-11-14T09:58:13.569Z,8.43
2022-11-14T10:00:55.984Z,9.57
2022-11-14T10:03:39.184Z,9.23
2022-11-14T10:06:28.953Z,9.33
2022-11-14T10:09:52.490Z,9.23
2022-11-14T10:12:34.890Z,9.07
2022-11-14T10:15:24.091Z,10.00
2022-11-14T10:18:21.253Z,9.80
2022-11-14T10:20:57.534Z,10.60
2022-11-14T10:23:43.924Z,11.40
2022-11-14T10:26:24.948Z,9.90
2022-11-14T10:29:43.222Z,10.07
2022-11-14T10:32:33.998Z,9.20
2022-11-14T10:35:12.779Z,9.53
2022-11-14T10:37:53.270Z,9.60
2022-11-14T10:40:27.738Z,10.00
2022-11-14T10:43:06.591Z,10.60
2022-11-14T10:45:45.486Z,10.17
2022-11-14T10:48:26.320Z,11.37
2022-11-14T10:51:00.598Z,11.50
2022-11-14T10:53:45.153Z,10.07
2022-11-14T10:56:17.526Z,10.03
2022-11-14T10:58:49.781Z,10.30
2022-11-14T11:01:41.388Z,10.43
2022-11-14T11:04:33.139Z,10.90
2022-11-14T11:07:42.711Z,9.80
2022-11-14T11:10:46.579Z,11.17
2022-11-14T11:13:35.661Z,10.47
2022-11-14T11:16:16.560Z,10.60
2022-11-14T11:18:50.903Z,10.33
2022-11-14T11:21:26.582Z,10.30
2022-11-14T11:23:59.834Z,9.00
2022-11-14T11:26:33.203Z,10.97
2022-11-14T11:29:15.918Z,10.23
2022-11-14T11:32:03.002Z,10.10
2022-11-14T11:34:38.839Z,9.00
2022-11-14T11:37:21.251Z,10.67
2022-11-14T11:40:00.466Z,9.20
2022-11-14T11:43:31.911Z,9.10
2022-11-14T11:45:32.195Z,9.30
2022-11-14T11:48:17.724Z,9.60
2022-11-14T11:50:55.498Z,10.20
2022-11-14T11:53:33.908Z,10.10
2022-11-14T11:56:14.534Z,9.03
2022-11-14T11:58:51.135Z,9.03
2022-11-14T12:01:21.996Z,9.77
2022-11-14T12:03:57.610Z,9.17
2022-11-14T12:06:40.381Z,10.73
2022-11-14T12:10:09.228Z,10.23
2022-11-14T12:13:16.569Z,9.10
2022-11-14T12:16:16.524Z,9.20
2022-11-14T12:19:53.386Z,10.17
2022-11-14T12:23:08.226Z,10.67
2022-11-14T12:26:03.637Z,10.00
2022-11-14T12:29:25.624Z,10.17
2022-11-14T12:32:04.112Z,10.97
2022-11-14T12:34:39.100Z,9.63
2022-11-14T12:37:16.441Z,10.70
2022-11-14T12:40:00.257Z,9.63
2022-11-14T12:42:29.515Z,10.00
2022-11-14T12:44:59.408Z,8.83
2022-11-14T12:47:31.978Z,9.50
2022-11-14T12:50:45.222Z,9.97
2022-11-14T12:53:55.790Z,8.47
2022-11-14T12:57:41.251Z,9.03
2022-11-14T13:00:13.044Z,9.43
2022-11-14T13:03:43.570Z,9.90
2022-11-14T13:06:27.076Z,9.10
2022-11-14T13:09:41.034Z,10.00
2022-11-14T13:12:56.356Z,9.47
2022-11-14T13:15:49.511Z,9.23
2022-11-14T13:18:44.759Z,8.80
2022-11-14T13:21:48.479Z,8.87
2022-11-14T13:24:20.642Z,10.47
2022-11-14T13:26:55.131Z,8.57
2022-11-14T13:30:00.289Z,9.97
2022-11-14T13:32:55.864Z,9.57
2022-11-14T13:35:46.064Z,10.90
2022-11-14T13:39:14.904Z,8.90
2022-11-14T13:42:25.960Z,9.40
2022-11-14T13:45:37.174Z,8.30
2022-11-14T13:48:49.545Z,9.53
2022-11-14T13:51:42.455Z,12.37
2022-11-14T13:54:18.222Z,8.80
2022-11-14T13:57:06.953Z,8.40
2022-11-14T13:59:54.719Z,8.83
2022-11-14T14:03:20.277Z,8.87
2022-11-14T14:06:14.613Z,9.47
2022-11-14T14:09:14.734Z,9.07
2022-11-14T14:12:27.747Z,9.30
2022-11-14T14:15:22.392Z,10.43
2022-11-14T14:18:10.247Z,8.77
2022-11-14T14:20:48.508Z,8.43
2022-11-14T14:23:36.837Z,8.93
2022-11-14T14:26:28.491Z,9.30
2022-11-14T14:29:15.501Z,9.70
2022-11-14T14:31:44.255Z,9.90
2022-11-14T14:34:31.025Z,9.23
2022-11-14T14:37:00.284Z,8.60
2022-11-14T14:39:30.491Z,8.40
2022-11-14T14:42:01.557Z,7.23
2022-11-14T14:44:38.066Z,7.60
2022-11-14T14:47:18.409Z,6.60
2022-11-14T14:49:49.954Z,6.70
2022-11-14T14:52:28.087Z,6.00
2022-11-14T14:55:02.668Z,6.50
2022-11-14T14:57:32.930Z,4.70
2022-11-14T15:00:03.854Z,6.20
2022-11-14T15:02:33.195Z,4.87
2022-11-14T15:05:04.952Z,4.90
2022-11-14T15:07:35.048Z,5.80
2022-11-14T15:10:07.886Z,4.50
2022-11-14T15:12:37.182Z,4.80
2022-11-14T15:15:13.634Z,4.53
2022-11-14T15:17:44.670Z,5.00
2022-11-14T15:20:28.602Z,4.83
2022-11-14T15:23:20.449Z,4.60
2022-11-14T15:25:49.184Z,4.83
2022-11-14T15:28:22.602Z,4.70
2022-11-14T15:31:00.744Z,4.10
2022-11-14T15:33:33.907Z,4.27
2022-11-14T15:36:13.919Z,4.43
2022-11-14T15:39:02.222Z,4.70
2022-11-14T15:41:32.134Z,4.57
2022-11-14T15:44:05.258Z,4.50
2022-11-14T15:46:48.849Z,4.20
2022-11-14T15:49:23.995Z,5.07
2022-11-14T15:51:59.069Z,5.07
2022-11-14T15:54:31.900Z,4.63
2022-11-14T15:57:03.231Z,4.93
2022-11-14T15:59:35.117Z,5.20
2022-11-14T16:02:18.379Z,4.20
2022-11-14T16:04:48.115Z,4.10
2022-11-14T16:07:19.950Z,4.93
2022-11-14T16:09:49.695Z,4.70
2022-11-14T16:12:19.131Z,4.53
2022-11-14T16:14:48.121Z,5.20
2022-11-14T16:17:19.120Z,6.07
2022-11-14T16:19:47.869Z,4.93
2022-11-14T16:22:20.145Z,5.20
2022-11-14T16:24:49.231Z,5.50
2022-11-14T16:27:18.294Z,5.47
2022-11-14T16:29:47.331Z,5.80
2022-11-14T16:32:16.273Z,6.90
2022-11-14T16:34:45.401Z,6.80
2022-11-14T16:37:15.917Z,6.07
2022-11-14T16:39:47.540Z,6.10
2022-11-14T16:42:17.944Z,6.70
2022-11-14T16:44:50.676Z,7.20
2022-11-14T16:47:21.579Z,7.57
2022-11-14T16:49:51.310Z,7.20
2022-11-14T16:52:20.575Z,6.83
2022-11-14T16:54:50.385Z,7.80
2022-11-14T16:57:19.848Z,7.53
2022-11-14T16:59:48.296Z,9.17
2022-11-14T17:02:19.050Z,7.80
2022-11-14T17:04:49.069Z,8.50
2022-11-14T17:07:22.900Z,8.47
2022-11-14T17:09:53.851Z,8.27
2022-11-14T17:12:23.265Z,8.93
2022-11-14T17:14:54.551Z,10.43
2022-11-14T17:17:23.317Z,8.17
2022-11-14T17:19:52.878Z,9.43
2022-11-14T17:22:22.866Z,9.60
2022-11-14T17:24:53.879Z,9.17
2022-11-14T17:27:23.416Z,9.83
2022-11-14T17:29:52.915Z,10.00
2022-11-14T17:32:22.309Z,9.90
2022-11-14T17:34:51.343Z,10.50
2022-11-14T17:37:21.721Z,11.67
2022-11-14T17:39:50.586Z,11.00
2022-11-14T17:42:21.435Z,10.10
2022-11-14T17:44:50.853Z,11.27
2022-11-14T17:47:20.559Z,11.00
2022-11-14T17:49:49.633Z,11.97
2022-11-14T17:52:19.472Z,12.70
2022-11-14T17:54:48.440Z,12.80
2022-11-14T17:57:18.801Z,12.23
2022-11-14T17:59:49.273Z,12.93
2022-11-14T18:02:19.357Z,13.07
2022-11-14T18:04:48.859Z,11.07
2022-11-14T18:07:20.609Z,11.37
2022-11-14T18:09:49.073Z,12.07
2022-11-14T18:12:18.200Z,12.27
2022-11-14T18:14:49.179Z,12.70
2022-11-14T18:17:18.223Z,13.10
2022-11-14T18:19:47.579Z,12.90
2022-11-14T18:22:16.738Z,14.07
2022-11-14T18:24:47.390Z,13.80
2022-11-14T18:27:15.984Z,12.83
2022-11-14T18:29:44.992Z,12.50
2022-11-14T18:32:15.648Z,11.50
2022-11-14T18:34:44.050Z,11.63
2022-11-14T18:37:13.002Z,10.20
2022-11-14T18:39:42.276Z,18.40
2022-11-14T18:42:12.296Z,15.30
2022-11-14T18:44:41.379Z,11.03
2022-11-14T18:47:11.263Z,10.80
2022-11-14T18:49:42.509Z,10.77
2022-11-14T18:52:17.127Z,10.00
2022-11-14T18:54:47.129Z,10.33
2022-11-14T18:57:16.553Z,11.10
2022-11-14T18:59:45.428Z,11.40
2022-11-14T19:02:14.298Z,31.53
2022-11-14T19:04:45.385Z,10.70
2022-11-14T19:07:15.866Z,13.70
2022-11-14T19:09:45.739Z,13.30
2022-11-14T19:12:22.097Z,11.67
2022-11-14T19:14:51.896Z,11.00
2022-11-14T19:17:22.788Z,11.87
2022-11-14T19:19:54.612Z,11.37
2022-11-14T19:22:24.961Z,10.93
2022-11-14T19:24:54.335Z,13.20
2022-11-14T19:27:24.345Z,12.00
2022-11-14T19:29:54.239Z,11.20
2022-11-14T19:32:23.657Z,10.43
2022-11-14T19:34:53.635Z,12.33
2022-11-14T19:37:22.762Z,15.27
2022-11-14T19:39:55.564Z,11.90
2022-11-14T19:42:25.304Z,12.20
2022-11-14T19:44:55.349Z,13.13
2022-11-14T19:47:24.049Z,11.17
2022-11-14T19:49:56.062Z,12.93
2022-11-14T19:52:24.967Z,11.83
2022-11-14T19:54:55.251Z,11.50
2022-11-14T19:57:25.236Z,11.53
2022-11-14T19:59:54.903Z,11.83
2022-11-14T20:02:25.860Z,12.70
2022-11-14T20:04:56.095Z,13.67
2022-11-14T20:07:25.542Z,11.60
2022-11-14T20:09:54.695Z,12.73
2022-11-14T20:12:25.250Z,13.00
2022-11-14T20:14:53.997Z,11.77
2022-11-14T20:17:24.418Z,12.90
2022-11-14T20:19:55.478Z,17.63
2022-11-14T20:22:24.300Z,13.47
2022-11-14T20:24:54.227Z,12.17
2022-11-14T20:27:24.037Z,12.80
2022-11-14T20:29:54.189Z,12.97
2022-11-14T20:32:24.077Z,11.73
2022-11-14T20:34:52.712Z,11.83
2022-11-14T20:37:23.809Z,11.70
2022-11-14T20:39:54.007Z,11.40
2022-11-14T20:42:23.703Z,11.67
2022-11-14T20:44:53.627Z,10.53
2022-11-14T20:47:23.363Z,10.97
2022-11-14T20:49:53.059Z,10.80
2022-11-14T20:52:24.959Z,11.07
2022-11-14T20:54:53.641Z,11.50
2022-11-14T20:57:22.237Z,9.83
2022-11-14T20:59:51.718Z,10.70
2022-11-14T21:02:20.879Z,10.17
2022-11-14T21:04:50.213Z,9.90
2022-11-14T21:07:19.251Z,10.37
2022-11-14T21:10:10.150Z,9.17
2022-11-14T21:12:39.150Z,10.13
2022-11-14T21:15:10.842Z,10.40
2022-11-14T21:17:41.085Z,11.07
2022-11-14T21:20:13.309Z,9.93
2022-11-14T21:22:42.604Z,10.33
2022-11-14T21:25:13.043Z,10.73
2022-11-14T21:27:41.575Z,9.87
2022-11-14T21:30:12.248Z,10.40
2022-11-14T21:32:42.870Z,10.67
2022-11-14T21:35:11.359Z,9.87
2022-11-14T21:37:40.891Z,9.90
2022-11-14T21:40:15.423Z,9.20
2022-11-14T21:42:45.357Z,9.80
2022-11-14T21:45:14.295Z,11.10
2022-11-14T21:47:43.730Z,10.60
2022-11-14T21:50:14.378Z,28.27
2022-11-14T21:52:44.313Z,11.80
2022-11-14T21:55:15.298Z,48.70
2022-11-14T21:57:44.280Z,10.93
2022-11-14T22:00:19.179Z,10.47
2022-11-14T22:03:06.968Z,9.87
2022-11-14T22:05:36.048Z,10.63
2022-11-14T22:08:05.746Z,9.80
2022-11-14T22:10:36.324Z,11.43
2022-11-14T22:13:05.738Z,10.53
2022-11-14T22:15:36.842Z,10.07
2022-11-14T22:18:06.873Z,8.80
2022-11-14T22:20:35.971Z,10.70
2022-11-14T22:23:05.764Z,10.00
2022-11-14T22:25:36.156Z,10.30
2022-11-14T22:28:06.092Z,9.90
2022-11-14T22:30:36.134Z,9.20
2022-11-14T22:33:06.014Z,10.30
2022-11-14T22:35:36.611Z,9.30
2022-11-14T22:38:06.069Z,9.90
2022-11-14T22:40:37.303Z,8.80
2022-11-14T22:43:06.885Z,9.17
2022-11-14T22:45:36.467Z,9.00
2022-11-14T22:48:07.126Z,8.57
2022-11-14T22:50:37.027Z,7.80
2022-11-14T22:53:05.848Z,8.33
2022-11-14T22:55:36.318Z,6.93
2022-11-14T22:58:04.854Z,7.90
2022-11-14T23:00:34.543Z,8.30
2022-11-14T23:03:04.409Z,7.97
2022-11-14T23:05:37.210Z,6.73
2022-11-14T23:08:07.723Z,8.73
2022-11-14T23:10:39.302Z,7.30
2022-11-14T23:13:08.146Z,6.73
2022-11-14T23:15:37.303Z,7.73
2022-11-14T23:18:08.200Z,6.67
2022-11-14T23:20:38.085Z,6.17
2022-11-14T23:23:07.264Z,5.50
2022-11-14T23:25:39.289Z,6.37
2022-11-14T23:28:08.975Z,5.53
2022-11-14T23:30:38.783Z,6.80
2022-11-14T23:33:07.901Z,5.43
2022-11-14T23:35:36.734Z,5.77
2022-11-14T23:38:06.235Z,5.60
2022-11-14T23:40:37.244Z,6.20
2022-11-14T23:43:06.946Z,5.43
2022-11-14T23:45:36.818Z,5.50
2022-11-14T23:48:06.857Z,5.63
2022-11-14T23:50:36.805Z,5.10
2022-11-14T23:53:06.867Z,5.13
2022-11-14T23:55:38.154Z,6.30
2022-11-14T23:58:07.023Z,5.43
